sensor_id;sensor_type;location;lat;lon;timestamp;P1;durP1;ratioP1;P2;durP2;ratioP2
68386;SDS011;55338;43.062;25.624;2022-07-01T00:02:10;5.00;;;3.60;;
68386;SDS011;55338;43.062;25.624;2022-07-01T00:04:35;5.68;;;3.28;;
68386;SDS011;55338;43.062;25.624;2022-07-01T00:07:01;9.73;;;3.42;;
68386;SDS011;55338;43.062;25.624;2022-07-01T00:09:27;6.30;;;3.60;;
68386;SDS011;55338;43.062;25.624;2022-07-01T00:11:53;5.53;;;3.30;;
68386;SDS011;55338;43.062;25.624;2022-07-01T00:14:19;9.60;;;3.40;;
68386;SDS011;55338;43.062;25.624;2022-07-01T00:16:48;5.33;;;3.60;;
68386;SDS011;55338;43.062;25.624;2022-07-01T00:19:14;6.07;;;3.17;;
68386;SDS011;55338;43.062;25.624;2022-07-01T00:21:40;9.95;;;4.05;;
68386;SDS011;55338;43.062;25.624;2022-07-01T00:24:06;6.13;;;3.70;;
68386;SDS011;55338;43.062;25.624;2022-07-01T00:26:31;5.90;;;3.20;;
68386;SDS011;55338;43.062;25.624;2022-07-01T00:28:57;8.05;;;4.00;;
68386;SDS011;55338;43.062;25.624;2022-07-01T00:31:23;5.70;;;3.53;;
68386;SDS011;55338;43.062;25.624;2022-07-01T00:33:49;9.13;;;3.42;;
68386;SDS011;55338;43.062;25.624;2022-07-01T00:36:15;7.07;;;3.10;;
68386;SDS011;55338;43.062;25.624;2022-07-01T00:38:41;5.60;;;3.13;;
68386;SDS011;55338;43.062;25.624;2022-07-01T00:41:06;7.85;;;3.35;;
68386;SDS011;55338;43.062;25.624;2022-07-01T00:43:36;6.20;;;3.50;;
68386;SDS011;55338;43.062;25.624;2022-07-01T00:46:03;6.10;;;3.23;;
68386;SDS011;55338;43.062;25.624;2022-07-01T00:48:30;10.00;;;3.78;;
68386;SDS011;55338;43.062;25.624;2022-07-01T00:50:57;9.48;;;3.22;;
68386;SDS011;55338;43.062;25.624;2022-07-01T00:53:23;6.18;;;3.67;;
68386;SDS011;55338;43.062;25.624;2022-07-01T00:55:50;6.88;;;3.55;;
68386;SDS011;55338;43.062;25.624;2022-07-01T00:58:16;9.57;;;3.40;;
68386;SDS011;55338;43.062;25.624;2022-07-01T01:00:42;8.85;;;3.80;;
68386;SDS011;55338;43.062;25.624;2022-07-01T01:03:08;7.20;;;4.05;;
68386;SDS011;55338;43.062;25.624;2022-07-01T01:05:37;5.73;;;3.33;;
68386;SDS011;55338;43.062;25.624;2022-07-01T01:08:04;7.80;;;3.40;;
68386;SDS011;55338;43.062;25.624;2022-07-01T01:10:30;6.22;;;3.42;;
68386;SDS011;55338;43.062;25.624;2022-07-01T01:12:56;6.72;;;3.40;;
68386;SDS011;55338;43.062;25.624;2022-07-01T01:15:23;9.40;;;3.13;;
68386;SDS011;55338;43.062;25.624;2022-07-01T01:17:49;6.35;;;3.22;;
68386;SDS011;55338;43.062;25.624;2022-07-01T01:20:16;8.25;;;3.40;;
68386;SDS011;55338;43.062;25.624;2022-07-01T01:22:43;8.60;;;3.58;;
68386;SDS011;55338;43.062;25.624;2022-07-01T01:25:09;10.95;;;4.85;;
68386;SDS011;55338;43.062;25.624;2022-07-01T01:27:35;9.40;;;3.30;;
68386;SDS011;55338;43.062;25.624;2022-07-01T01:30:05;10.00;;;3.55;;
68386;SDS011;55338;43.062;25.624;2022-07-01T01:32:32;6.38;;;2.80;;
68386;SDS011;55338;43.062;25.624;2022-07-01T01:34:58;7.45;;;3.65;;
68386;SDS011;55338;43.062;25.624;2022-07-01T01:37:24;6.97;;;4.60;;
68386;SDS011;55338;43.062;25.624;2022-07-01T01:39:50;6.75;;;3.38;;
68386;SDS011;55338;43.062;25.624;2022-07-01T01:42:15;14.55;;;3.60;;
68386;SDS011;55338;43.062;25.624;2022-07-01T01:44:41;6.47;;;3.33;;
68386;SDS011;55338;43.062;25.624;2022-07-01T01:47:07;7.45;;;3.40;;
68386;SDS011;55338;43.062;25.624;2022-07-01T01:49:33;5.07;;;3.23;;
68386;SDS011;55338;43.062;25.624;2022-07-01T01:51:59;9.70;;;4.13;;
68386;SDS011;55338;43.062;25.624;2022-07-01T01:54:25;7.32;;;3.60;;
68386;SDS011;55338;43.062;25.624;2022-07-01T01:56:51;7.03;;;3.28;;
68386;SDS011;55338;43.062;25.624;2022-07-01T01:59:17;8.13;;;3.60;;
68386;SDS011;55338;43.062;25.624;2022-07-01T02:01:43;10.27;;;3.58;;
68386;SDS011;55338;43.062;25.624;2022-07-01T02:04:09;5.70;;;3.47;;
68386;SDS011;55338;43.062;25.624;2022-07-01T02:06:35;9.73;;;3.77;;
68386;SDS011;55338;43.062;25.624;2022-07-01T02:09:02;7.45;;;3.72;;
68386;SDS011;55338;43.062;25.624;2022-07-01T02:11:28;5.28;;;3.70;;
68386;SDS011;55338;43.062;25.624;2022-07-01T02:13:54;6.00;;;3.47;;
68386;SDS011;55338;43.062;25.624;2022-07-01T02:16:19;12.03;;;3.70;;
68386;SDS011;55338;43.062;25.624;2022-07-01T02:18:45;7.82;;;3.58;;
68386;SDS011;55338;43.062;25.624;2022-07-01T02:21:11;6.30;;;3.60;;
68386;SDS011;55338;43.062;25.624;2022-07-01T02:23:37;9.90;;;3.60;;
68386;SDS011;55338;43.062;25.624;2022-07-01T02:26:03;6.85;;;3.70;;
68386;SDS011;55338;43.062;25.624;2022-07-01T02:28:28;7.87;;;3.77;;
68386;SDS011;55338;43.062;25.624;2022-07-01T02:30:54;6.80;;;3.80;;
68386;SDS011;55338;43.062;25.624;2022-07-01T02:33:20;8.27;;;4.27;;
68386;SDS011;55338;43.062;25.624;2022-07-01T02:35:46;7.68;;;4.65;;
68386;SDS011;55338;43.062;25.624;2022-07-01T02:38:12;7.05;;;4.07;;
68386;SDS011;55338;43.062;25.624;2022-07-01T02:40:38;6.33;;;3.57;;
68386;SDS011;55338;43.062;25.624;2022-07-01T02:43:08;10.87;;;5.23;;
68386;SDS011;55338;43.062;25.624;2022-07-01T02:45:34;6.60;;;4.30;;
68386;SDS011;55338;43.062;25.624;2022-07-01T02:48:00;12.65;;;4.20;;
68386;SDS011;55338;43.062;25.624;2022-07-01T02:50:26;11.13;;;4.22;;
68386;SDS011;55338;43.062;25.624;2022-07-01T02:52:53;7.88;;;3.95;;
68386;SDS011;55338;43.062;25.624;2022-07-01T02:55:19;15.13;;;4.30;;
68386;SDS011;55338;43.062;25.624;2022-07-01T02:57:45;8.77;;;4.35;;
68386;SDS011;55338;43.062;25.624;2022-07-01T03:00:15;7.88;;;4.38;;
68386;SDS011;55338;43.062;25.624;2022-07-01T03:02:41;8.67;;;4.03;;
68386;SDS011;55338;43.062;25.624;2022-07-01T03:05:07;15.47;;;4.33;;
68386;SDS011;55338;43.062;25.624;2022-07-01T03:07:33;13.90;;;4.15;;
68386;SDS011;55338;43.062;25.624;2022-07-01T03:10:02;12.48;;;4.40;;
68386;SDS011;55338;43.062;25.624;2022-07-01T03:12:29;9.23;;;4.30;;
68386;SDS011;55338;43.062;25.624;2022-07-01T03:15:04;10.33;;;4.30;;
68386;SDS011;55338;43.062;25.624;2022-07-01T03:17:36;12.30;;;4.75;;
68386;SDS011;55338;43.062;25.624;2022-07-01T03:20:04;13.43;;;4.90;;
68386;SDS011;55338;43.062;25.624;2022-07-01T03:22:31;10.73;;;4.80;;
68386;SDS011;55338;43.062;25.624;2022-07-01T03:24:58;8.75;;;4.47;;
68386;SDS011;55338;43.062;25.624;2022-07-01T03:27:24;10.77;;;4.23;;
68386;SDS011;55338;43.062;25.624;2022-07-01T03:29:50;12.77;;;4.75;;
68386;SDS011;55338;43.062;25.624;2022-07-01T03:32:16;9.20;;;4.07;;
68386;SDS011;55338;43.062;25.624;2022-07-01T03:34:43;17.48;;;4.53;;
68386;SDS011;55338;43.062;25.624;2022-07-01T03:37:13;12.07;;;4.78;;
68386;SDS011;55338;43.062;25.624;2022-07-01T03:39:39;12.70;;;5.20;;
68386;SDS011;55338;43.062;25.624;2022-07-01T03:42:06;16.50;;;4.88;;
68386;SDS011;55338;43.062;25.624;2022-07-01T03:44:32;11.82;;;4.18;;
68386;SDS011;55338;43.062;25.624;2022-07-01T03:46:59;12.18;;;4.18;;
68386;SDS011;55338;43.062;25.624;2022-07-01T03:49:25;12.27;;;4.73;;
68386;SDS011;55338;43.062;25.624;2022-07-01T03:51:51;6.95;;;4.15;;
68386;SDS011;55338;43.062;25.624;2022-07-01T03:54:17;9.50;;;4.60;;
68386;SDS011;55338;43.062;25.624;2022-07-01T03:56:59;11.07;;;4.30;;
68386;SDS011;55338;43.062;25.624;2022-07-01T03:59:27;9.95;;;5.05;;
68386;SDS011;55338;43.062;25.624;2022-07-01T04:01:56;9.43;;;4.33;;
68386;SDS011;55338;43.062;25.624;2022-07-01T04:04:23;7.68;;;4.10;;
68386;SDS011;55338;43.062;25.624;2022-07-01T04:06:50;9.18;;;4.28;;
68386;SDS011;55338;43.062;25.624;2022-07-01T04:09:17;16.25;;;5.93;;
68386;SDS011;55338;43.062;25.624;2022-07-01T04:11:44;14.90;;;6.47;;
68386;SDS011;55338;43.062;25.624;2022-07-01T04:14:11;22.37;;;6.03;;
68386;SDS011;55338;43.062;25.624;2022-07-01T04:16:37;14.18;;;5.47;;
68386;SDS011;55338;43.062;25.624;2022-07-01T04:19:03;17.60;;;5.10;;
68386;SDS011;55338;43.062;25.624;2022-07-01T04:21:30;11.60;;;5.88;;
68386;SDS011;55338;43.062;25.624;2022-07-01T04:24:15;12.23;;;6.28;;
68386;SDS011;55338;43.062;25.624;2022-07-01T04:26:41;22.50;;;8.10;;
68386;SDS011;55338;43.062;25.624;2022-07-01T04:29:08;21.85;;;7.47;;
68386;SDS011;55338;43.062;25.624;2022-07-01T04:31:34;18.02;;;8.27;;
68386;SDS011;55338;43.062;25.624;2022-07-01T04:34:06;23.05;;;8.68;;
68386;SDS011;55338;43.062;25.624;2022-07-01T04:36:33;25.50;;;9.43;;
68386;SDS011;55338;43.062;25.624;2022-07-01T04:39:00;18.97;;;9.63;;
68386;SDS011;55338;43.062;25.624;2022-07-01T04:41:27;17.13;;;9.38;;
68386;SDS011;55338;43.062;25.624;2022-07-01T04:44:11;28.20;;;10.48;;
68386;SDS011;55338;43.062;25.624;2022-07-01T04:46:37;16.05;;;7.90;;
68386;SDS011;55338;43.062;25.624;2022-07-01T04:49:03;16.77;;;6.43;;
68386;SDS011;55338;43.062;25.624;2022-07-01T04:51:28;10.13;;;5.82;;
68386;SDS011;55338;43.062;25.624;2022-07-01T04:53:55;14.95;;;6.82;;
68386;SDS011;55338;43.062;25.624;2022-07-01T04:56:20;13.60;;;6.67;;
68386;SDS011;55338;43.062;25.624;2022-07-01T04:58:47;18.17;;;6.43;;
68386;SDS011;55338;43.062;25.624;2022-07-01T05:01:13;23.17;;;8.85;;
68386;SDS011;55338;43.062;25.624;2022-07-01T05:03:39;14.77;;;7.30;;
68386;SDS011;55338;43.062;25.624;2022-07-01T05:06:05;19.37;;;8.13;;
68386;SDS011;55338;43.062;25.624;2022-07-01T05:08:31;20.77;;;8.40;;
68386;SDS011;55338;43.062;25.624;2022-07-01T05:10:56;15.30;;;5.97;;
68386;SDS011;55338;43.062;25.624;2022-07-01T05:13:22;16.33;;;6.70;;
68386;SDS011;55338;43.062;25.624;2022-07-01T05:15:48;11.15;;;5.60;;
68386;SDS011;55338;43.062;25.624;2022-07-01T05:18:14;15.68;;;5.75;;
68386;SDS011;55338;43.062;25.624;2022-07-01T05:20:58;10.03;;;4.50;;
68386;SDS011;55338;43.062;25.624;2022-07-01T05:23:43;8.73;;;3.72;;
68386;SDS011;55338;43.062;25.624;2022-07-01T05:26:08;6.88;;;4.03;;
68386;SDS011;55338;43.062;25.624;2022-07-01T05:28:34;6.63;;;3.47;;
68386;SDS011;55338;43.062;25.624;2022-07-01T05:31:00;8.35;;;3.90;;
68386;SDS011;55338;43.062;25.624;2022-07-01T05:33:26;8.03;;;4.20;;
68386;SDS011;55338;43.062;25.624;2022-07-01T05:35:52;7.35;;;3.90;;
68386;SDS011;55338;43.062;25.624;2022-07-01T05:38:18;6.18;;;3.88;;
68386;SDS011;55338;43.062;25.624;2022-07-01T05:40:44;7.05;;;3.92;;
68386;SDS011;55338;43.062;25.624;2022-07-01T05:43:10;9.43;;;4.37;;
68386;SDS011;55338;43.062;25.624;2022-07-01T05:45:36;9.13;;;4.18;;
68386;SDS011;55338;43.062;25.624;2022-07-01T05:48:02;8.18;;;4.22;;
68386;SDS011;55338;43.062;25.624;2022-07-01T05:50:28;11.85;;;4.40;;
68386;SDS011;55338;43.062;25.624;2022-07-01T05:52:54;9.47;;;4.37;;
68386;SDS011;55338;43.062;25.624;2022-07-01T05:55:20;16.38;;;5.47;;
68386;SDS011;55338;43.062;25.624;2022-07-01T05:57:46;10.67;;;4.40;;
68386;SDS011;55338;43.062;25.624;2022-07-01T06:00:12;11.73;;;4.50;;
68386;SDS011;55338;43.062;25.624;2022-07-01T06:02:38;8.73;;;3.80;;
68386;SDS011;55338;43.062;25.624;2022-07-01T06:05:04;7.00;;;3.83;;
68386;SDS011;55338;43.062;25.624;2022-07-01T06:07:30;9.48;;;3.95;;
68386;SDS011;55338;43.062;25.624;2022-07-01T06:09:56;11.73;;;3.65;;
68386;SDS011;55338;43.062;25.624;2022-07-01T06:12:22;7.97;;;3.47;;
68386;SDS011;55338;43.062;25.624;2022-07-01T06:14:48;10.52;;;4.20;;
68386;SDS011;55338;43.062;25.624;2022-07-01T06:17:14;9.77;;;3.85;;
68386;SDS011;55338;43.062;25.624;2022-07-01T06:19:41;33.35;;;11.05;;
68386;SDS011;55338;43.062;25.624;2022-07-01T06:22:07;8.37;;;4.47;;
68386;SDS011;55338;43.062;25.624;2022-07-01T06:24:32;6.97;;;4.05;;
68386;SDS011;55338;43.062;25.624;2022-07-01T06:26:58;8.60;;;3.87;;
68386;SDS011;55338;43.062;25.624;2022-07-01T06:29:25;7.90;;;4.10;;
68386;SDS011;55338;43.062;25.624;2022-07-01T06:31:52;7.15;;;3.85;;
68386;SDS011;55338;43.062;25.624;2022-07-01T06:34:19;15.15;;;4.53;;
68386;SDS011;55338;43.062;25.624;2022-07-01T06:36:45;5.60;;;3.40;;
68386;SDS011;55338;43.062;25.624;2022-07-01T06:39:11;5.70;;;3.78;;
68386;SDS011;55338;43.062;25.624;2022-07-01T06:41:37;7.45;;;4.00;;
68386;SDS011;55338;43.062;25.624;2022-07-01T06:44:03;7.80;;;4.23;;
68386;SDS011;55338;43.062;25.624;2022-07-01T06:46:30;7.28;;;4.00;;
68386;SDS011;55338;43.062;25.624;2022-07-01T06:48:56;6.25;;;4.07;;
68386;SDS011;55338;43.062;25.624;2022-07-01T06:51:23;8.10;;;4.32;;
68386;SDS011;55338;43.062;25.624;2022-07-01T06:53:50;8.63;;;4.87;;
68386;SDS011;55338;43.062;25.624;2022-07-01T06:56:16;12.00;;;4.97;;
68386;SDS011;55338;43.062;25.624;2022-07-01T06:58:42;8.10;;;4.30;;
68386;SDS011;55338;43.062;25.624;2022-07-01T07:01:08;5.82;;;3.53;;
68386;SDS011;55338;43.062;25.624;2022-07-01T07:03:36;8.95;;;3.65;;
68386;SDS011;55338;43.062;25.624;2022-07-01T07:06:02;11.33;;;5.40;;
68386;SDS011;55338;43.062;25.624;2022-07-01T07:08:29;11.73;;;4.10;;
68386;SDS011;55338;43.062;25.624;2022-07-01T07:10:56;13.30;;;4.65;;
68386;SDS011;55338;43.062;25.624;2022-07-01T07:13:22;8.48;;;4.30;;
68386;SDS011;55338;43.062;25.624;2022-07-01T07:15:48;17.50;;;8.80;;
68386;SDS011;55338;43.062;25.624;2022-07-01T07:18:14;20.60;;;7.13;;
68386;SDS011;55338;43.062;25.624;2022-07-01T07:20:41;19.08;;;7.93;;
68386;SDS011;55338;43.062;25.624;2022-07-01T07:23:06;27.95;;;9.68;;
68386;SDS011;55338;43.062;25.624;2022-07-01T07:25:32;17.10;;;6.77;;
68386;SDS011;55338;43.062;25.624;2022-07-01T07:27:58;25.53;;;6.60;;
68386;SDS011;55338;43.062;25.624;2022-07-01T07:30:24;19.00;;;6.50;;
68386;SDS011;55338;43.062;25.624;2022-07-01T07:32:50;13.93;;;6.07;;
68386;SDS011;55338;43.062;25.624;2022-07-01T07:35:16;18.27;;;5.82;;
68386;SDS011;55338;43.062;25.624;2022-07-01T07:37:42;12.77;;;6.22;;
68386;SDS011;55338;43.062;25.624;2022-07-01T07:40:09;10.13;;;6.30;;
68386;SDS011;55338;43.062;25.624;2022-07-01T07:42:37;10.23;;;6.13;;
68386;SDS011;55338;43.062;25.624;2022-07-01T07:45:04;13.23;;;6.25;;
68386;SDS011;55338;43.062;25.624;2022-07-01T07:47:35;9.95;;;5.47;;
68386;SDS011;55338;43.062;25.624;2022-07-01T07:50:01;10.88;;;6.05;;
68386;SDS011;55338;43.062;25.624;2022-07-01T07:52:27;14.43;;;7.57;;
68386;SDS011;55338;43.062;25.624;2022-07-01T07:54:53;16.23;;;7.18;;
68386;SDS011;55338;43.062;25.624;2022-07-01T07:57:19;9.30;;;6.55;;
68386;SDS011;55338;43.062;25.624;2022-07-01T07:59:45;16.53;;;6.40;;
68386;SDS011;55338;43.062;25.624;2022-07-01T08:02:11;10.23;;;5.68;;
68386;SDS011;55338;43.062;25.624;2022-07-01T08:04:37;12.55;;;6.25;;
68386;SDS011;55338;43.062;25.624;2022-07-01T08:07:03;12.23;;;6.30;;
68386;SDS011;55338;43.062;25.624;2022-07-01T08:09:29;12.85;;;7.10;;
68386;SDS011;55338;43.062;25.624;2022-07-01T08:11:54;16.42;;;9.27;;
68386;SDS011;55338;43.062;25.624;2022-07-01T08:14:21;17.87;;;9.17;;
68386;SDS011;55338;43.062;25.624;2022-07-01T08:16:46;13.52;;;9.00;;
68386;SDS011;55338;43.062;25.624;2022-07-01T08:19:12;17.65;;;7.93;;
68386;SDS011;55338;43.062;25.624;2022-07-01T08:21:38;10.73;;;5.63;;
68386;SDS011;55338;43.062;25.624;2022-07-01T08:24:04;10.95;;;5.70;;
68386;SDS011;55338;43.062;25.624;2022-07-01T08:26:30;11.70;;;5.60;;
68386;SDS011;55338;43.062;25.624;2022-07-01T08:28:56;10.33;;;6.17;;
68386;SDS011;55338;43.062;25.624;2022-07-01T08:31:21;8.02;;;4.20;;
68386;SDS011;55338;43.062;25.624;2022-07-01T08:33:47;7.25;;;5.15;;
68386;SDS011;55338;43.062;25.624;2022-07-01T08:36:13;9.40;;;4.87;;
68386;SDS011;55338;43.062;25.624;2022-07-01T08:38:39;8.05;;;4.45;;
68386;SDS011;55338;43.062;25.624;2022-07-01T08:41:06;8.88;;;5.03;;
68386;SDS011;55338;43.062;25.624;2022-07-01T08:43:32;7.90;;;5.30;;
68386;SDS011;55338;43.062;25.624;2022-07-01T08:45:59;10.45;;;4.82;;
68386;SDS011;55338;43.062;25.624;2022-07-01T08:48:29;9.70;;;4.95;;
68386;SDS011;55338;43.062;25.624;2022-07-01T08:50:56;10.00;;;4.40;;
68386;SDS011;55338;43.062;25.624;2022-07-01T08:53:21;7.03;;;4.65;;
68386;SDS011;55338;43.062;25.624;2022-07-01T08:55:47;9.23;;;4.63;;
68386;SDS011;55338;43.062;25.624;2022-07-01T08:58:32;5.90;;;4.80;;
68386;SDS011;55338;43.062;25.624;2022-07-01T09:03:45;13.38;;;6.05;;
68386;SDS011;55338;43.062;25.624;2022-07-01T09:06:13;7.18;;;5.13;;
68386;SDS011;55338;43.062;25.624;2022-07-01T09:08:44;7.53;;;5.47;;
68386;SDS011;55338;43.062;25.624;2022-07-01T09:11:20;10.07;;;5.97;;
68386;SDS011;55338;43.062;25.624;2022-07-01T09:14:08;7.13;;;5.03;;
68386;SDS011;55338;43.062;25.624;2022-07-01T09:19:11;17.67;;;10.93;;
68386;SDS011;55338;43.062;25.624;2022-07-01T09:21:39;15.10;;;9.17;;
68386;SDS011;55338;43.062;25.624;2022-07-01T09:24:25;12.40;;;7.43;;
68386;SDS011;55338;43.062;25.624;2022-07-01T09:27:05;7.68;;;4.80;;
68386;SDS011;55338;43.062;25.624;2022-07-01T09:29:35;12.93;;;4.97;;
68386;SDS011;55338;43.062;25.624;2022-07-01T09:32:04;12.13;;;5.53;;
68386;SDS011;55338;43.062;25.624;2022-07-01T09:34:35;18.60;;;5.83;;
68386;SDS011;55338;43.062;25.624;2022-07-01T09:37:07;10.63;;;6.07;;
68386;SDS011;55338;43.062;25.624;2022-07-01T09:42:32;8.68;;;5.25;;
68386;SDS011;55338;43.062;25.624;2022-07-01T09:45:02;7.43;;;4.80;;
68386;SDS011;55338;43.062;25.624;2022-07-01T09:47:33;7.97;;;4.97;;
68386;SDS011;55338;43.062;25.624;2022-07-01T09:50:01;13.18;;;4.78;;
68386;SDS011;55338;43.062;25.624;2022-07-01T09:52:28;9.10;;;5.85;;
68386;SDS011;55338;43.062;25.624;2022-07-01T09:54:54;9.65;;;5.32;;
68386;SDS011;55338;43.062;25.624;2022-07-01T09:57:20;13.30;;;6.13;;
68386;SDS011;55338;43.062;25.624;2022-07-01T09:59:50;15.85;;;6.70;;
68386;SDS011;55338;43.062;25.624;2022-07-01T10:02:19;9.50;;;5.70;;
68386;SDS011;55338;43.062;25.624;2022-07-01T10:04:51;8.48;;;6.90;;
68386;SDS011;55338;43.062;25.624;2022-07-01T10:13:07;5.45;;;4.65;;
68386;SDS011;55338;43.062;25.624;2022-07-01T10:15:34;9.85;;;4.57;;
68386;SDS011;55338;43.062;25.624;2022-07-01T10:18:00;8.20;;;4.45;;
68386;SDS011;55338;43.062;25.624;2022-07-01T10:20:28;6.43;;;5.03;;
68386;SDS011;55338;43.062;25.624;2022-07-01T10:23:02;5.85;;;4.78;;
68386;SDS011;55338;43.062;25.624;2022-07-01T10:25:39;7.47;;;4.82;;
68386;SDS011;55338;43.062;25.624;2022-07-01T10:28:13;7.10;;;5.35;;
68386;SDS011;55338;43.062;25.624;2022-07-01T10:30:52;8.45;;;4.95;;
68386;SDS011;55338;43.062;25.624;2022-07-01T10:36:07;6.75;;;4.20;;
68386;SDS011;55338;43.062;25.624;2022-07-01T10:38:35;7.00;;;5.47;;
68386;SDS011;55338;43.062;25.624;2022-07-01T10:41:24;8.63;;;4.53;;
68386;SDS011;55338;43.062;25.624;2022-07-01T10:43:53;5.75;;;5.15;;
68386;SDS011;55338;43.062;25.624;2022-07-01T10:49:09;13.38;;;5.70;;
68386;SDS011;55338;43.062;25.624;2022-07-01T10:51:53;6.30;;;5.57;;
68386;SDS011;55338;43.062;25.624;2022-07-01T11:04:58;9.43;;;5.57;;
68386;SDS011;55338;43.062;25.624;2022-07-01T11:07:26;8.27;;;5.90;;
68386;SDS011;55338;43.062;25.624;2022-07-01T11:09:55;6.10;;;5.20;;
68386;SDS011;55338;43.062;25.624;2022-07-01T11:12:22;8.97;;;5.20;;
68386;SDS011;55338;43.062;25.624;2022-07-01T11:14:49;9.50;;;4.90;;
68386;SDS011;55338;43.062;25.624;2022-07-01T11:17:15;8.35;;;5.95;;
68386;SDS011;55338;43.062;25.624;2022-07-01T11:19:48;18.30;;;5.43;;
68386;SDS011;55338;43.062;25.624;2022-07-01T11:22:23;7.03;;;5.68;;
68386;SDS011;55338;43.062;25.624;2022-07-01T11:24:57;5.73;;;4.60;;
68386;SDS011;55338;43.062;25.624;2022-07-01T11:27:25;7.40;;;5.18;;
68386;SDS011;55338;43.062;25.624;2022-07-01T11:29:52;9.75;;;5.82;;
68386;SDS011;55338;43.062;25.624;2022-07-01T11:32:32;5.47;;;4.82;;
68386;SDS011;55338;43.062;25.624;2022-07-01T11:34:59;7.32;;;4.95;;
68386;SDS011;55338;43.062;25.624;2022-07-01T11:37:30;6.57;;;5.40;;
68386;SDS011;55338;43.062;25.624;2022-07-01T11:40:16;7.13;;;4.80;;
68386;SDS011;55338;43.062;25.624;2022-07-01T11:42:43;7.35;;;5.43;;
68386;SDS011;55338;43.062;25.624;2022-07-01T11:45:23;8.10;;;5.10;;
68386;SDS011;55338;43.062;25.624;2022-07-01T11:47:50;8.32;;;5.00;;
68386;SDS011;55338;43.062;25.624;2022-07-01T11:50:16;5.83;;;4.80;;
68386;SDS011;55338;43.062;25.624;2022-07-01T11:52:42;5.68;;;5.15;;
68386;SDS011;55338;43.062;25.624;2022-07-01T11:55:08;9.43;;;5.00;;
68386;SDS011;55338;43.062;25.624;2022-07-01T11:57:34;8.25;;;5.10;;
68386;SDS011;55338;43.062;25.624;2022-07-01T12:00:07;9.00;;;5.40;;
68386;SDS011;55338;43.062;25.624;2022-07-01T12:02:35;8.05;;;5.30;;
68386;SDS011;55338;43.062;25.624;2022-07-01T12:05:01;7.78;;;4.90;;
68386;SDS011;55338;43.062;25.624;2022-07-01T12:07:28;6.97;;;5.60;;
68386;SDS011;55338;43.062;25.624;2022-07-01T12:09:54;10.07;;;5.40;;
68386;SDS011;55338;43.062;25.624;2022-07-01T12:12:21;6.50;;;4.78;;
68386;SDS011;55338;43.062;25.624;2022-07-01T12:14:51;5.93;;;5.25;;
68386;SDS011;55338;43.062;25.624;2022-07-01T12:17:19;9.77;;;5.32;;
68386;SDS011;55338;43.062;25.624;2022-07-01T12:19:46;6.20;;;5.37;;
68386;SDS011;55338;43.062;25.624;2022-07-01T12:22:13;8.93;;;5.30;;
68386;SDS011;55338;43.062;25.624;2022-07-01T12:24:41;6.00;;;5.30;;
68386;SDS011;55338;43.062;25.624;2022-07-01T12:27:08;7.57;;;5.53;;
68386;SDS011;55338;43.062;25.624;2022-07-01T12:32:16;7.37;;;5.10;;
68386;SDS011;55338;43.062;25.624;2022-07-01T12:37:14;7.30;;;5.60;;
68386;SDS011;55338;43.062;25.624;2022-07-01T12:39:48;9.20;;;5.35;;
68386;SDS011;55338;43.062;25.624;2022-07-01T12:42:23;7.18;;;4.85;;
68386;SDS011;55338;43.062;25.624;2022-07-01T12:44:51;5.40;;;4.67;;
68386;SDS011;55338;43.062;25.624;2022-07-01T12:47:21;7.90;;;5.07;;
68386;SDS011;55338;43.062;25.624;2022-07-01T12:50:14;11.10;;;5.10;;
68386;SDS011;55338;43.062;25.624;2022-07-01T12:53:01;7.45;;;5.15;;
68386;SDS011;55338;43.062;25.624;2022-07-01T12:55:36;7.80;;;5.53;;
68386;SDS011;55338;43.062;25.624;2022-07-01T12:58:13;8.43;;;5.17;;
68386;SDS011;55338;43.062;25.624;2022-07-01T13:00:43;6.95;;;5.30;;
68386;SDS011;55338;43.062;25.624;2022-07-01T13:03:17;6.80;;;4.60;;
68386;SDS011;55338;43.062;25.624;2022-07-01T13:05:44;10.13;;;5.00;;
68386;SDS011;55338;43.062;25.624;2022-07-01T13:08:10;11.83;;;5.00;;
68386;SDS011;55338;43.062;25.624;2022-07-01T13:10:37;7.38;;;5.15;;
68386;SDS011;55338;43.062;25.624;2022-07-01T13:13:03;6.53;;;4.80;;
68386;SDS011;55338;43.062;25.624;2022-07-01T13:15:30;8.18;;;5.10;;
68386;SDS011;55338;43.062;25.624;2022-07-01T13:17:56;5.70;;;5.10;;
68386;SDS011;55338;43.062;25.624;2022-07-01T13:20:22;7.00;;;5.20;;
68386;SDS011;55338;43.062;25.624;2022-07-01T13:22:48;8.98;;;5.20;;
68386;SDS011;55338;43.062;25.624;2022-07-01T13:25:14;8.13;;;6.22;;
68386;SDS011;55338;43.062;25.624;2022-07-01T13:27:40;8.30;;;5.50;;
68386;SDS011;55338;43.062;25.624;2022-07-01T13:30:08;7.83;;;5.40;;
68386;SDS011;55338;43.062;25.624;2022-07-01T13:32:36;10.38;;;5.50;;
68386;SDS011;55338;43.062;25.624;2022-07-01T13:35:04;6.80;;;5.35;;
68386;SDS011;55338;43.062;25.624;2022-07-01T13:37:32;8.95;;;5.20;;
68386;SDS011;55338;43.062;25.624;2022-07-01T13:39:58;9.33;;;5.63;;
68386;SDS011;55338;43.062;25.624;2022-07-01T13:42:23;8.32;;;5.57;;
68386;SDS011;55338;43.062;25.624;2022-07-01T13:44:49;6.65;;;5.55;;
68386;SDS011;55338;43.062;25.624;2022-07-01T13:47:16;6.17;;;5.57;;
68386;SDS011;55338;43.062;25.624;2022-07-01T13:49:41;8.77;;;5.93;;
68386;SDS011;55338;43.062;25.624;2022-07-01T13:52:08;10.93;;;6.00;;
68386;SDS011;55338;43.062;25.624;2022-07-01T13:54:35;8.80;;;5.72;;
68386;SDS011;55338;43.062;25.624;2022-07-01T13:57:01;7.77;;;7.07;;
68386;SDS011;55338;43.062;25.624;2022-07-01T13:59:26;7.28;;;5.68;;
68386;SDS011;55338;43.062;25.624;2022-07-01T14:01:52;6.93;;;6.03;;
68386;SDS011;55338;43.062;25.624;2022-07-01T14:04:18;7.90;;;5.90;;
68386;SDS011;55338;43.062;25.624;2022-07-01T14:06:44;7.43;;;5.50;;
68386;SDS011;55338;43.062;25.624;2022-07-01T14:09:10;10.77;;;6.70;;
68386;SDS011;55338;43.062;25.624;2022-07-01T14:11:36;12.10;;;5.70;;
68386;SDS011;55338;43.062;25.624;2022-07-01T14:14:02;7.35;;;5.55;;
68386;SDS011;55338;43.062;25.624;2022-07-01T14:16:27;8.85;;;5.78;;
68386;SDS011;55338;43.062;25.624;2022-07-01T14:18:55;8.13;;;5.43;;
68386;SDS011;55338;43.062;25.624;2022-07-01T14:21:21;8.40;;;6.00;;
68386;SDS011;55338;43.062;25.624;2022-07-01T14:23:47;10.60;;;5.78;;
68386;SDS011;55338;43.062;25.624;2022-07-01T14:26:14;11.10;;;6.22;;
68386;SDS011;55338;43.062;25.624;2022-07-01T14:28:40;7.28;;;5.85;;
68386;SDS011;55338;43.062;25.624;2022-07-01T14:31:06;6.33;;;5.57;;
68386;SDS011;55338;43.062;25.624;2022-07-01T14:33:32;8.00;;;6.20;;
68386;SDS011;55338;43.062;25.624;2022-07-01T14:35:58;41.67;;;6.75;;
68386;SDS011;55338;43.062;25.624;2022-07-01T14:38:24;13.88;;;5.00;;
68386;SDS011;55338;43.062;25.624;2022-07-01T14:40:50;9.97;;;4.70;;
68386;SDS011;55338;43.062;25.624;2022-07-01T14:43:16;11.55;;;4.60;;
68386;SDS011;55338;43.062;25.624;2022-07-01T14:45:41;16.77;;;5.47;;
68386;SDS011;55338;43.062;25.624;2022-07-01T14:48:07;12.50;;;4.65;;
68386;SDS011;55338;43.062;25.624;2022-07-01T14:50:34;14.40;;;4.28;;
68386;SDS011;55338;43.062;25.624;2022-07-01T14:53:01;28.40;;;5.70;;
68386;SDS011;55338;43.062;25.624;2022-07-01T14:55:28;5.72;;;4.75;;
68386;SDS011;55338;43.062;25.624;2022-07-01T14:57:54;9.32;;;4.50;;
68386;SDS011;55338;43.062;25.624;2022-07-01T15:00:20;7.70;;;4.87;;
68386;SDS011;55338;43.062;25.624;2022-07-01T15:02:46;7.47;;;4.45;;
68386;SDS011;55338;43.062;25.624;2022-07-01T15:05:12;7.95;;;4.47;;
68386;SDS011;55338;43.062;25.624;2022-07-01T15:07:39;7.47;;;4.03;;